TVS1P DTTA-LIEO
Flight info
| Callsign | TVS1P |
|---|---|
| Flight time | 1h 3m |
| Altitude | 32000 |
| Route | TOBIB3C TOBIB DCT TANIT DCT OSMAR DCT PIRIX DCT CAR DCT LABOM |
| Aircraft | B38M/M-SDE3FGHIJ1J3J4J7M3P2RWXY/LB1D1 |
Departure
| Time | 2026-04-28 19:46 |
|---|---|
| Airport | Tunis Carthage International Airport (DTTA) |
Arrival
| Time | 2026-04-28 20:49 |
|---|---|
| Airport | Olbia Costa Smeralda Airport (LIEO) |
| Time | Latitude | Longitude | Altitude | Speed | Heading |
|---|---|---|---|---|---|
| 2026-04-28 19:08 | 36.84644 | 10.22002 | 16 ft | 0 kts | 247° |
| 2026-04-28 19:37 | 36.84648 | 10.22012 | 28 ft | 2 kts | 247° |
| 2026-04-28 19:38 | 36.84654 | 10.22031 | 28 ft | 2 kts | 247° |
| 2026-04-28 19:38 | 36.84660 | 10.22050 | 28 ft | 2 kts | 247° |
| 2026-04-28 19:38 | 36.84667 | 10.22068 | 28 ft | 2 kts | 247° |
| 2026-04-28 19:38 | 36.84673 | 10.22087 | 28 ft | 2 kts | 245° |
| 2026-04-28 19:39 | 36.84683 | 10.22103 | 28 ft | 2 kts | 205° |
| 2026-04-28 19:39 | 36.84688 | 10.22105 | 28 ft | 0 kts | 185° |
| 2026-04-28 19:41 | 36.84674 | 10.22104 | 28 ft | 4 kts | 182° |
| 2026-04-28 19:41 | 36.84622 | 10.22103 | 27 ft | 11 kts | 185° |
| 2026-04-28 19:42 | 36.84521 | 10.22101 | 27 ft | 11 kts | 155° |
| 2026-04-28 19:42 | 36.84497 | 10.22180 | 27 ft | 10 kts | 97° |
| 2026-04-28 19:42 | 36.84527 | 10.22255 | 27 ft | 11 kts | 28° |
| 2026-04-28 19:42 | 36.84583 | 10.22277 | 27 ft | 15 kts | 17° |
| 2026-04-28 19:43 | 36.84749 | 10.22326 | 28 ft | 22 kts | 10° |
| 2026-04-28 19:43 | 36.84920 | 10.22367 | 28 ft | 25 kts | 12° |
| 2026-04-28 19:43 | 36.85029 | 10.22293 | 29 ft | 19 kts | 293° |
| 2026-04-28 19:43 | 36.85081 | 10.22131 | 30 ft | 22 kts | 292° |
| 2026-04-28 19:44 | 36.85145 | 10.21937 | 30 ft | 27 kts | 292° |
| 2026-04-28 19:44 | 36.85226 | 10.21729 | 31 ft | 24 kts | 314° |
| 2026-04-28 19:44 | 36.85354 | 10.21741 | 31 ft | 18 kts | 41° |
| 2026-04-28 19:44 | 36.85421 | 10.21824 | 32 ft | 8 kts | 94° |
| 2026-04-28 19:45 | 36.85406 | 10.21875 | 31 ft | 6 kts | 117° |
| 2026-04-28 19:45 | 36.85379 | 10.21935 | 31 ft | 10 kts | 126° |
| 2026-04-28 19:45 | 36.85351 | 10.22022 | 30 ft | 13 kts | 109° |
| 2026-04-28 19:45 | 36.85221 | 10.22386 | 30 ft | 92 kts | 113° |
| 2026-04-28 19:46 | 36.84880 | 10.23452 | 84 ft | 170 kts | 111° |
| 2026-04-28 19:46 | 36.84377 | 10.25027 | 667 ft | 213 kts | 111° |
| 2026-04-28 19:46 | 36.83813 | 10.26783 | 2054 ft | 218 kts | 115° |
| 2026-04-28 19:46 | 36.83250 | 10.28523 | 3588 ft | 214 kts | 116° |
| 2026-04-28 19:47 | 36.82492 | 10.30094 | 4857 ft | 212 kts | 139° |
| 2026-04-28 19:47 | 36.81166 | 10.30885 | 5778 ft | 219 kts | 177° |
| 2026-04-28 19:47 | 36.79689 | 10.30487 | 6801 ft | 220 kts | 211° |
| 2026-04-28 19:47 | 36.78640 | 10.29126 | 7749 ft | 228 kts | 244° |
| 2026-04-28 19:48 | 36.78409 | 10.27179 | 8762 ft | 231 kts | 280° |
| 2026-04-28 19:48 | 36.79174 | 10.25405 | 9697 ft | 241 kts | 315° |
| 2026-04-28 19:48 | 36.80657 | 10.24405 | 9914 ft | 246 kts | 346° |
| 2026-04-28 19:48 | 36.82340 | 10.23987 | 9986 ft | 249 kts | 343° |
| 2026-04-28 19:49 | 36.83969 | 10.23471 | 11040 ft | 232 kts | 343° |
| 2026-04-28 19:49 | 36.85535 | 10.22971 | 12026 ft | 235 kts | 343° |
| 2026-04-28 19:49 | 36.87151 | 10.22485 | 12719 ft | 248 kts | 343° |
| 2026-04-28 19:49 | 36.88885 | 10.21957 | 13340 ft | 264 kts | 343° |
| 2026-04-28 19:50 | 36.92702 | 10.20781 | 14392 ft | 301 kts | 343° |
| 2026-04-28 19:50 | 36.94806 | 10.20128 | 14823 ft | 321 kts | 343° |
| 2026-04-28 19:50 | 36.96277 | 10.19670 | 15088 ft | 334 kts | 343° |
| 2026-04-28 19:51 | 36.99366 | 10.18710 | 15721 ft | 354 kts | 343° |
| 2026-04-28 19:51 | 37.01797 | 10.17953 | 16352 ft | 362 kts | 343° |
| 2026-04-28 19:51 | 37.04250 | 10.17188 | 17223 ft | 364 kts | 343° |
| 2026-04-28 19:51 | 37.05890 | 10.16677 | 17713 ft | 368 kts | 343° |
| 2026-04-28 19:52 | 37.08395 | 10.15895 | 18430 ft | 373 kts | 343° |
| 2026-04-28 19:52 | 37.10935 | 10.15101 | 19090 ft | 377 kts | 343° |
| 2026-04-28 19:52 | 37.13495 | 10.14301 | 19764 ft | 380 kts | 343° |
| 2026-04-28 19:52 | 37.16071 | 10.13495 | 20412 ft | 383 kts | 343° |
| 2026-04-28 19:53 | 37.18676 | 10.12680 | 21061 ft | 387 kts | 343° |
| 2026-04-28 19:53 | 37.21271 | 10.11867 | 21690 ft | 390 kts | 342° |
| 2026-04-28 19:53 | 37.23932 | 10.11034 | 22335 ft | 393 kts | 342° |
| 2026-04-28 19:53 | 37.26607 | 10.10195 | 22974 ft | 396 kts | 342° |
| 2026-04-28 19:54 | 37.29268 | 10.09360 | 23579 ft | 399 kts | 342° |
| 2026-04-28 19:54 | 37.31983 | 10.08507 | 23920 ft | 403 kts | 342° |
| 2026-04-28 19:54 | 37.34700 | 10.07653 | 23957 ft | 402 kts | 342° |
| 2026-04-28 19:54 | 37.37407 | 10.06803 | 23965 ft | 401 kts | 342° |
| 2026-04-28 19:55 | 37.40118 | 10.05948 | 24060 ft | 402 kts | 342° |
| 2026-04-28 19:55 | 37.42833 | 10.05090 | 24703 ft | 401 kts | 342° |
| 2026-04-28 19:55 | 37.45564 | 10.04227 | 25130 ft | 407 kts | 342° |
| 2026-04-28 19:55 | 37.48315 | 10.03357 | 25639 ft | 409 kts | 342° |
| 2026-04-28 19:56 | 37.51087 | 10.02479 | 26118 ft | 412 kts | 342° |
| 2026-04-28 19:56 | 37.53841 | 10.01607 | 26577 ft | 415 kts | 342° |
| 2026-04-28 19:56 | 37.56654 | 10.00715 | 27065 ft | 418 kts | 342° |
| 2026-04-28 19:56 | 37.59483 | 9.99818 | 27508 ft | 422 kts | 342° |
| 2026-04-28 19:57 | 37.62354 | 9.98906 | 27947 ft | 425 kts | 342° |
| 2026-04-28 19:57 | 37.65238 | 9.97990 | 28387 ft | 428 kts | 342° |
| 2026-04-28 19:57 | 37.68139 | 9.97068 | 28801 ft | 431 kts | 342° |
| 2026-04-28 19:57 | 37.71027 | 9.96149 | 29229 ft | 434 kts | 342° |
| 2026-04-28 19:58 | 37.73981 | 9.95208 | 29635 ft | 437 kts | 342° |
| 2026-04-28 19:58 | 37.76948 | 9.94264 | 30041 ft | 441 kts | 342° |
| 2026-04-28 19:58 | 37.79934 | 9.93314 | 30370 ft | 444 kts | 342° |
| 2026-04-28 19:58 | 37.82944 | 9.92355 | 30720 ft | 446 kts | 342° |
| 2026-04-28 19:59 | 37.85967 | 9.91391 | 31078 ft | 449 kts | 342° |
| 2026-04-28 19:59 | 37.89000 | 9.90423 | 31472 ft | 450 kts | 341° |
| 2026-04-28 19:59 | 37.91998 | 9.89466 | 31935 ft | 449 kts | 341° |
| 2026-04-28 20:00 | 37.98043 | 9.87534 | 32000 ft | 447 kts | 341° |
| 2026-04-28 20:00 | 38.04081 | 9.85600 | 32010 ft | 447 kts | 341° |
| 2026-04-28 20:01 | 38.10128 | 9.83660 | 32018 ft | 448 kts | 342° |
| 2026-04-28 20:01 | 38.16181 | 9.81715 | 32009 ft | 448 kts | 342° |
| 2026-04-28 20:02 | 38.22212 | 9.79774 | 32015 ft | 449 kts | 342° |
| 2026-04-28 20:02 | 38.28279 | 9.77827 | 32016 ft | 450 kts | 342° |
| 2026-04-28 20:03 | 38.34376 | 9.75873 | 32017 ft | 451 kts | 342° |
| 2026-04-28 20:03 | 38.40478 | 9.73913 | 32021 ft | 452 kts | 342° |
| 2026-04-28 20:04 | 38.46583 | 9.71949 | 32022 ft | 452 kts | 343° |
| 2026-04-28 20:04 | 38.52705 | 9.69975 | 32027 ft | 453 kts | 343° |
| 2026-04-28 20:05 | 38.58798 | 9.68008 | 32027 ft | 454 kts | 343° |
| 2026-04-28 20:05 | 38.64880 | 9.66041 | 32031 ft | 454 kts | 343° |
| 2026-04-28 20:06 | 38.71051 | 9.64041 | 32031 ft | 455 kts | 343° |
| 2026-04-28 20:06 | 38.77191 | 9.62048 | 32029 ft | 455 kts | 343° |
| 2026-04-28 20:07 | 38.83301 | 9.60061 | 32033 ft | 455 kts | 343° |
| 2026-04-28 20:07 | 38.89459 | 9.58053 | 32031 ft | 456 kts | 343° |
| 2026-04-28 20:08 | 38.95613 | 9.55997 | 32037 ft | 456 kts | 343° |
| 2026-04-28 20:08 | 39.01712 | 9.53959 | 32034 ft | 457 kts | 343° |
| 2026-04-28 20:09 | 39.07867 | 9.51900 | 32037 ft | 457 kts | 343° |
| 2026-04-28 20:09 | 39.14121 | 9.50569 | 32051 ft | 459 kts | 355° |
| 2026-04-28 20:10 | 39.20505 | 9.50055 | 32046 ft | 459 kts | 355° |
| 2026-04-28 20:10 | 39.26893 | 9.49539 | 32043 ft | 459 kts | 355° |
| 2026-04-28 20:11 | 39.33239 | 9.49029 | 32044 ft | 458 kts | 355° |
| 2026-04-28 20:11 | 39.39612 | 9.48515 | 32053 ft | 458 kts | 355° |
| 2026-04-28 20:12 | 39.45945 | 9.48004 | 32046 ft | 457 kts | 355° |
| 2026-04-28 20:12 | 39.52260 | 9.47493 | 31868 ft | 447 kts | 355° |
| 2026-04-28 20:12 | 39.54320 | 9.47326 | 31606 ft | 444 kts | 355° |
| 2026-04-28 20:13 | 39.58398 | 9.46995 | 30876 ft | 440 kts | 355° |
| 2026-04-28 20:13 | 39.61450 | 9.46747 | 30327 ft | 437 kts | 355° |
| 2026-04-28 20:13 | 39.64475 | 9.46502 | 29765 ft | 433 kts | 355° |
| 2026-04-28 20:13 | 39.67472 | 9.46258 | 29211 ft | 429 kts | 355° |
| 2026-04-28 20:14 | 39.70448 | 9.46016 | 28710 ft | 424 kts | 355° |
| 2026-04-28 20:14 | 39.73339 | 9.45781 | 28215 ft | 419 kts | 355° |
| 2026-04-28 20:14 | 39.76234 | 9.45545 | 27725 ft | 414 kts | 355° |
| 2026-04-28 20:14 | 39.79101 | 9.45311 | 27231 ft | 410 kts | 354° |
| 2026-04-28 20:15 | 39.81941 | 9.45079 | 26743 ft | 407 kts | 355° |
| 2026-04-28 20:15 | 39.84754 | 9.44849 | 26255 ft | 403 kts | 355° |
| 2026-04-28 20:15 | 39.87558 | 9.44620 | 25773 ft | 401 kts | 355° |
| 2026-04-28 20:15 | 39.90337 | 9.44393 | 25294 ft | 400 kts | 355° |
| 2026-04-28 20:16 | 39.93117 | 9.44166 | 24803 ft | 400 kts | 355° |
| 2026-04-28 20:16 | 39.95892 | 9.43938 | 24336 ft | 399 kts | 355° |
| 2026-04-28 20:16 | 39.98617 | 9.43714 | 24031 ft | 393 kts | 355° |
| 2026-04-28 20:16 | 40.01294 | 9.43494 | 24072 ft | 377 kts | 355° |
| 2026-04-28 20:17 | 40.03865 | 9.43283 | 24074 ft | 362 kts | 354° |
| 2026-04-28 20:17 | 40.06344 | 9.43080 | 24073 ft | 348 kts | 354° |
| 2026-04-28 20:17 | 40.08715 | 9.42884 | 24075 ft | 334 kts | 354° |
| 2026-04-28 20:17 | 40.10959 | 9.42699 | 24076 ft | 320 kts | 354° |
| 2026-04-28 20:18 | 40.13154 | 9.42518 | 24074 ft | 305 kts | 354° |
| 2026-04-28 20:18 | 40.14539 | 9.42404 | 24078 ft | 295 kts | 354° |
| 2026-04-28 20:18 | 40.17230 | 9.42182 | 23623 ft | 295 kts | 354° |
| 2026-04-28 20:18 | 40.19324 | 9.42009 | 22916 ft | 306 kts | 354° |
| 2026-04-28 20:19 | 40.21487 | 9.41830 | 22205 ft | 316 kts | 354° |
| 2026-04-28 20:19 | 40.23724 | 9.41646 | 21479 ft | 327 kts | 354° |
| 2026-04-28 20:19 | 40.25996 | 9.41458 | 21032 ft | 329 kts | 354° |
| 2026-04-28 20:19 | 40.28235 | 9.41273 | 21051 ft | 314 kts | 354° |
| 2026-04-28 20:20 | 40.30377 | 9.41096 | 21045 ft | 300 kts | 354° |
| 2026-04-28 20:20 | 40.32410 | 9.40927 | 21052 ft | 286 kts | 354° |
| 2026-04-28 20:20 | 40.34358 | 9.40766 | 21049 ft | 285 kts | 354° |
| 2026-04-28 20:20 | 40.36386 | 9.40597 | 21068 ft | 292 kts | 354° |
| 2026-04-28 20:21 | 40.38426 | 9.40701 | 20963 ft | 296 kts | 11° |
| 2026-04-28 20:21 | 40.40390 | 9.41446 | 20794 ft | 298 kts | 14° |
| 2026-04-28 20:21 | 40.42407 | 9.42234 | 20221 ft | 307 kts | 15° |
| 2026-04-28 20:21 | 40.44465 | 9.43058 | 19762 ft | 309 kts | 15° |
| 2026-04-28 20:22 | 40.46507 | 9.43890 | 19480 ft | 305 kts | 15° |
| 2026-04-28 20:22 | 40.48512 | 9.44714 | 19208 ft | 300 kts | 15° |
| 2026-04-28 20:22 | 40.50504 | 9.45538 | 18935 ft | 296 kts | 15° |
| 2026-04-28 20:22 | 40.52447 | 9.46344 | 18653 ft | 292 kts | 15° |
| 2026-04-28 20:23 | 40.54376 | 9.47145 | 18359 ft | 289 kts | 15° |
| 2026-04-28 20:23 | 40.56283 | 9.47938 | 18017 ft | 286 kts | 15° |
| 2026-04-28 20:23 | 40.58171 | 9.48725 | 17677 ft | 284 kts | 16° |
| 2026-04-28 20:23 | 40.59913 | 9.49878 | 17318 ft | 286 kts | 39° |
| 2026-04-28 20:24 | 40.61231 | 9.51825 | 16984 ft | 285 kts | 53° |
| 2026-04-28 20:24 | 40.62405 | 9.53920 | 16667 ft | 284 kts | 53° |
| 2026-04-28 20:24 | 40.63561 | 9.56035 | 16360 ft | 284 kts | 53° |
| 2026-04-28 20:24 | 40.64701 | 9.58170 | 16066 ft | 284 kts | 54° |
| 2026-04-28 20:25 | 40.65803 | 9.60317 | 15778 ft | 282 kts | 55° |
| 2026-04-28 20:25 | 40.66879 | 9.62428 | 15915 ft | 272 kts | 55° |
| 2026-04-28 20:25 | 40.67959 | 9.64540 | 16060 ft | 281 kts | 55° |
| 2026-04-28 20:25 | 40.69048 | 9.66670 | 16081 ft | 280 kts | 55° |
| 2026-04-28 20:26 | 40.70142 | 9.68810 | 16108 ft | 282 kts | 55° |
| 2026-04-28 20:26 | 40.71219 | 9.70918 | 16033 ft | 281 kts | 55° |
| 2026-04-28 20:26 | 40.72313 | 9.73060 | 16023 ft | 281 kts | 55° |
| 2026-04-28 20:26 | 40.73406 | 9.75197 | 16032 ft | 281 kts | 55° |
| 2026-04-28 20:27 | 40.74505 | 9.77343 | 16027 ft | 281 kts | 55° |
| 2026-04-28 20:27 | 40.75603 | 9.79486 | 16036 ft | 281 kts | 55° |
| 2026-04-28 20:27 | 40.76699 | 9.81627 | 16036 ft | 281 kts | 55° |
| 2026-04-28 20:27 | 40.77782 | 9.83744 | 16039 ft | 282 kts | 55° |
| 2026-04-28 20:28 | 40.78880 | 9.85889 | 16039 ft | 282 kts | 55° |
| 2026-04-28 20:28 | 40.79978 | 9.88031 | 16037 ft | 282 kts | 55° |
| 2026-04-28 20:28 | 40.81079 | 9.90177 | 16037 ft | 282 kts | 55° |
| 2026-04-28 20:28 | 40.82183 | 9.92320 | 16037 ft | 282 kts | 55° |
| 2026-04-28 20:29 | 40.83285 | 9.94464 | 15962 ft | 282 kts | 55° |
| 2026-04-28 20:29 | 40.84408 | 9.96651 | 15331 ft | 287 kts | 55° |
| 2026-04-28 20:29 | 40.85508 | 9.98788 | 15083 ft | 277 kts | 55° |
| 2026-04-28 20:29 | 40.86588 | 10.00881 | 14805 ft | 276 kts | 55° |
| 2026-04-28 20:30 | 40.87714 | 10.02930 | 14513 ft | 274 kts | 46° |
| 2026-04-28 20:30 | 40.89307 | 10.04203 | 14162 ft | 268 kts | 11° |
| 2026-04-28 20:30 | 40.91121 | 10.04076 | 13799 ft | 260 kts | 336° |
| 2026-04-28 20:30 | 40.92487 | 10.02668 | 13396 ft | 252 kts | 302° |
| 2026-04-28 20:31 | 40.93280 | 10.00614 | 13086 ft | 249 kts | 288° |
| 2026-04-28 20:31 | 40.93672 | 9.98395 | 12773 ft | 247 kts | 272° |
| 2026-04-28 20:31 | 40.93431 | 9.96191 | 12439 ft | 243 kts | 246° |
| 2026-04-28 20:31 | 40.92619 | 9.94250 | 12133 ft | 241 kts | 242° |
| 2026-04-28 20:32 | 40.91873 | 9.92258 | 11854 ft | 241 kts | 243° |
| 2026-04-28 20:32 | 40.91135 | 9.90278 | 11580 ft | 239 kts | 243° |
| 2026-04-28 20:32 | 40.90396 | 9.88310 | 11302 ft | 239 kts | 243° |
| 2026-04-28 20:32 | 40.89660 | 9.86353 | 11043 ft | 237 kts | 243° |
| 2026-04-28 20:33 | 40.88927 | 9.84404 | 10773 ft | 237 kts | 243° |
| 2026-04-28 20:33 | 40.88194 | 9.82461 | 10495 ft | 236 kts | 243° |
| 2026-04-28 20:33 | 40.87472 | 9.80544 | 10234 ft | 235 kts | 243° |
| 2026-04-28 20:33 | 40.86749 | 9.78621 | 9979 ft | 233 kts | 242° |
| 2026-04-28 20:34 | 40.86026 | 9.76703 | 9705 ft | 232 kts | 242° |
| 2026-04-28 20:34 | 40.85306 | 9.74796 | 9421 ft | 232 kts | 243° |
| 2026-04-28 20:34 | 40.84590 | 9.72897 | 9141 ft | 231 kts | 243° |
| 2026-04-28 20:34 | 40.83875 | 9.71002 | 8867 ft | 230 kts | 242° |
| 2026-04-28 20:35 | 40.83161 | 9.69111 | 8634 ft | 228 kts | 242° |
| 2026-04-28 20:35 | 40.82451 | 9.67233 | 8959 ft | 231 kts | 242° |
| 2026-04-28 20:35 | 40.81734 | 9.65333 | 9006 ft | 231 kts | 242° |
| 2026-04-28 20:35 | 40.81025 | 9.63457 | 8756 ft | 233 kts | 242° |
| 2026-04-28 20:36 | 40.80299 | 9.61539 | 8287 ft | 233 kts | 242° |
| 2026-04-28 20:36 | 40.79582 | 9.59646 | 7988 ft | 227 kts | 242° |
| 2026-04-28 20:36 | 40.78763 | 9.57869 | 7684 ft | 227 kts | 234° |
| 2026-04-28 20:36 | 40.77856 | 9.56162 | 7374 ft | 227 kts | 234° |
| 2026-04-28 20:37 | 40.77257 | 9.55023 | 7179 ft | 227 kts | 233° |
| 2026-04-28 20:37 | 40.76361 | 9.53304 | 6883 ft | 227 kts | 234° |
| 2026-04-28 20:37 | 40.75470 | 9.51584 | 6580 ft | 227 kts | 234° |
| 2026-04-28 20:37 | 40.74582 | 9.49871 | 6275 ft | 226 kts | 233° |
| 2026-04-28 20:38 | 40.73682 | 9.48166 | 6016 ft | 225 kts | 233° |
| 2026-04-28 20:38 | 40.72789 | 9.46473 | 5989 ft | 225 kts | 233° |
| 2026-04-28 20:38 | 40.71894 | 9.44773 | 5983 ft | 225 kts | 233° |
| 2026-04-28 20:38 | 40.70999 | 9.43074 | 6006 ft | 226 kts | 233° |
| 2026-04-28 20:39 | 40.70100 | 9.41367 | 6007 ft | 226 kts | 233° |
| 2026-04-28 20:39 | 40.69214 | 9.39687 | 6008 ft | 226 kts | 233° |
| 2026-04-28 20:39 | 40.68315 | 9.37982 | 6000 ft | 226 kts | 233° |
| 2026-04-28 20:39 | 40.67421 | 9.36288 | 6002 ft | 225 kts | 233° |
| 2026-04-28 20:40 | 40.66522 | 9.34585 | 6003 ft | 226 kts | 233° |
| 2026-04-28 20:40 | 40.65626 | 9.32888 | 6003 ft | 226 kts | 233° |
| 2026-04-28 20:40 | 40.64727 | 9.31185 | 6004 ft | 226 kts | 233° |
| 2026-04-28 20:40 | 40.63832 | 9.29487 | 6004 ft | 225 kts | 233° |
| 2026-04-28 20:41 | 40.62968 | 9.27788 | 5995 ft | 226 kts | 240° |
| 2026-04-28 20:41 | 40.62717 | 9.25757 | 5979 ft | 232 kts | 277° |
| 2026-04-28 20:41 | 40.63379 | 9.23809 | 6027 ft | 237 kts | 305° |
| 2026-04-28 20:41 | 40.64645 | 9.22424 | 5990 ft | 240 kts | 334° |
| 2026-04-28 20:42 | 40.66279 | 9.22042 | 5996 ft | 241 kts | 5° |
| 2026-04-28 20:42 | 40.67878 | 9.22337 | 5996 ft | 221 kts | 6° |
| 2026-04-28 20:42 | 40.69343 | 9.22524 | 6009 ft | 209 kts | 5° |
| 2026-04-28 20:42 | 40.70791 | 9.22693 | 6004 ft | 209 kts | 5° |
| 2026-04-28 20:43 | 40.72242 | 9.22855 | 5926 ft | 210 kts | 5° |
| 2026-04-28 20:43 | 40.73687 | 9.23075 | 5534 ft | 209 kts | 15° |
| 2026-04-28 20:43 | 40.74913 | 9.24017 | 5094 ft | 201 kts | 44° |
| 2026-04-28 20:43 | 40.75850 | 9.25329 | 5065 ft | 197 kts | 52° |
| 2026-04-28 20:44 | 40.76695 | 9.26749 | 4939 ft | 201 kts | 55° |
| 2026-04-28 20:44 | 40.77518 | 9.28235 | 4645 ft | 199 kts | 56° |
| 2026-04-28 20:44 | 40.78311 | 9.29719 | 4348 ft | 197 kts | 56° |
| 2026-04-28 20:44 | 40.79093 | 9.31202 | 4068 ft | 196 kts | 57° |
| 2026-04-28 20:45 | 40.79867 | 9.32675 | 3795 ft | 195 kts | 57° |
| 2026-04-28 20:45 | 40.80639 | 9.34145 | 3486 ft | 195 kts | 57° |
| 2026-04-28 20:45 | 40.81396 | 9.35587 | 3203 ft | 182 kts | 57° |
| 2026-04-28 20:45 | 40.82079 | 9.36886 | 2947 ft | 164 kts | 58° |
| 2026-04-28 20:46 | 40.82691 | 9.38055 | 2739 ft | 148 kts | 58° |
| 2026-04-28 20:46 | 40.83285 | 9.39189 | 2504 ft | 149 kts | 58° |
| 2026-04-28 20:46 | 40.83865 | 9.40294 | 2271 ft | 148 kts | 58° |
| 2026-04-28 20:46 | 40.84451 | 9.41416 | 2033 ft | 147 kts | 58° |
| 2026-04-28 20:47 | 40.85034 | 9.42529 | 1795 ft | 146 kts | 59° |
| 2026-04-28 20:47 | 40.85614 | 9.43637 | 1563 ft | 146 kts | 58° |
| 2026-04-28 20:47 | 40.86191 | 9.44741 | 1343 ft | 145 kts | 57° |
| 2026-04-28 20:47 | 40.86754 | 9.45812 | 1111 ft | 143 kts | 56° |
| 2026-04-28 20:48 | 40.87317 | 9.46887 | 891 ft | 141 kts | 55° |
| 2026-04-28 20:48 | 40.87876 | 9.47948 | 653 ft | 140 kts | 55° |
| 2026-04-28 20:48 | 40.88433 | 9.48996 | 389 ft | 138 kts | 57° |
| 2026-04-28 20:48 | 40.88975 | 9.50041 | 184 ft | 137 kts | 57° |
| 2026-04-28 20:49 | 40.89506 | 9.51070 | 46 ft | 124 kts | 56° |
| 2026-04-28 20:49 | 40.89851 | 9.51738 | 41 ft | 55 kts | 55° |
| 2026-04-28 20:49 | 40.90032 | 9.52008 | 39 ft | 43 kts | 22° |
| 2026-04-28 20:49 | 40.90144 | 9.52024 | 39 ft | 0 kts | 330° |
| 2026-04-28 20:50 | 40.90156 | 9.52010 | 40 ft | 8 kts | 310° |
| 2026-04-28 20:50 | 40.90141 | 9.51892 | 40 ft | 17 kts | 241° |
| 2026-04-28 20:51 | 40.90137 | 9.51861 | 41 ft | 0 kts | 296° |
| 2026-04-28 20:51 | 40.90138 | 9.51860 | 41 ft | 0 kts | 309° |
| 2026-04-28 20:51 | 40.90140 | 9.51860 | 41 ft | 0 kts | 333° |
| 2026-04-28 20:51 | 40.90146 | 9.51859 | 38 ft | 2 kts | 353° |
| 2026-04-28 20:52 | 40.90160 | 9.51860 | 41 ft | 0 kts | 349° |
| 2026-04-28 20:52 | 40.90179 | 9.51849 | 41 ft | 6 kts | 325° |
| 2026-04-28 20:52 | 40.90232 | 9.51817 | 41 ft | 8 kts | 9° |
| 2026-04-28 20:52 | 40.90276 | 9.51826 | 40 ft | 0 kts | 346° |
| 2026-04-28 20:53 | 40.90283 | 9.51804 | 40 ft | 2 kts | 260° |
| 2026-04-28 20:53 | 40.90282 | 9.51798 | 40 ft | 0 kts | 275° |
| 2026-04-28 20:53 | 40.90286 | 9.51790 | 40 ft | 2 kts | 319° |
| 2026-04-28 20:54 | 40.90299 | 9.51781 | 39 ft | 0 kts | 335° |